createdAt,value
2017-09-19T00:00:06.176Z,99037
2017-09-19T00:02:34.260Z,99043
2017-09-19T00:05:04.080Z,99036
2017-09-19T00:07:32.933Z,99033
2017-09-19T00:10:01.009Z,99038
2017-09-19T00:12:29.139Z,99035
2017-09-19T00:14:57.221Z,99038
2017-09-19T00:17:25.300Z,99031
2017-09-19T00:19:53.372Z,99041
2017-09-19T00:22:21.469Z,99033
2017-09-19T00:24:49.560Z,99036
2017-09-19T00:27:17.642Z,99043
2017-09-19T00:29:45.715Z,99037
2017-09-19T00:32:13.791Z,99041
2017-09-19T00:34:42.726Z,99034
2017-09-19T00:37:10.811Z,99036
2017-09-19T00:39:38.891Z,99040
2017-09-19T00:42:06.973Z,99032
2017-09-19T00:44:35.072Z,99040
2017-09-19T00:47:03.139Z,99028
2017-09-19T00:49:31.216Z,99032
2017-09-19T00:51:59.284Z,99036
2017-09-19T00:54:27.364Z,99030
2017-09-19T00:56:56.208Z,99029
2017-09-19T00:59:24.295Z,99032
2017-09-19T01:01:52.373Z,99027
2017-09-19T01:04:20.464Z,99026
2017-09-19T01:06:48.535Z,99019
2017-09-19T01:09:16.617Z,99018
2017-09-19T01:11:45.465Z,99027
2017-09-19T01:14:13.549Z,99013
2017-09-19T01:16:41.648Z,99016
2017-09-19T01:19:09.731Z,99018
2017-09-19T01:21:38.571Z,99013
2017-09-19T01:24:06.662Z,99006
2017-09-19T01:26:34.731Z,99003
2017-09-19T01:29:02.815Z,99004
2017-09-19T01:31:30.887Z,99005
2017-09-19T01:33:58.975Z,99012
2017-09-19T01:36:27.048Z,99002
2017-09-19T01:38:55.212Z,99001
2017-09-19T01:41:23.280Z,99007
2017-09-19T01:43:51.364Z,99000
2017-09-19T01:46:19.440Z,98998
2017-09-19T01:48:47.516Z,98997
2017-09-19T01:51:16.376Z,98998
2017-09-19T01:53:44.465Z,99002
2017-09-19T01:56:12.545Z,99003
2017-09-19T01:58:40.627Z,98995
2017-09-19T02:01:08.704Z,98989
2017-09-19T02:03:37.559Z,98988
2017-09-19T02:06:05.684Z,98996
2017-09-19T02:08:33.781Z,98999
2017-09-19T02:11:01.852Z,98991
2017-09-19T02:13:29.927Z,98992
2017-09-19T02:15:57.995Z,98994
2017-09-19T02:18:26.852Z,98981
2017-09-19T02:20:55.700Z,98988
2017-09-19T02:23:23.788Z,98993
2017-09-19T02:25:51.880Z,98990
2017-09-19T02:28:20.736Z,98991
2017-09-19T02:30:48.815Z,98993
2017-09-19T02:33:16.895Z,98984
2017-09-19T02:35:44.972Z,98988
2017-09-19T02:38:13.080Z,98995
2017-09-19T02:40:41.182Z,98990
2017-09-19T02:43:09.263Z,98986
2017-09-19T02:45:37.377Z,98979
2017-09-19T02:48:05.465Z,98980
2017-09-19T02:50:34.307Z,98979
2017-09-19T02:53:02.392Z,98984
2017-09-19T02:55:30.459Z,98978
2017-09-19T02:57:58.553Z,98990
2017-09-19T03:00:26.640Z,98976
2017-09-19T03:02:55.480Z,98976
2017-09-19T03:05:23.577Z,98975
2017-09-19T03:07:51.652Z,98971
2017-09-19T03:10:19.735Z,98974
2017-09-19T03:12:47.809Z,98974
2017-09-19T03:15:15.882Z,98972
2017-09-19T03:17:43.942Z,98969
2017-09-19T03:20:12.022Z,98966
2017-09-19T03:22:40.088Z,98974
2017-09-19T03:25:08.168Z,98962
2017-09-19T03:27:36.248Z,98971
2017-09-19T03:30:04.328Z,98966
2017-09-19T03:32:33.176Z,98963
2017-09-19T03:35:01.252Z,98960
2017-09-19T03:37:29.356Z,98960
2017-09-19T03:39:58.228Z,98958
2017-09-19T03:42:26.299Z,98962
2017-09-19T03:44:54.382Z,98946
2017-09-19T03:47:22.463Z,98958
2017-09-19T03:49:51.325Z,98961
2017-09-19T03:52:19.395Z,98965
2017-09-19T03:54:47.484Z,98953
2017-09-19T03:57:15.557Z,98970
2017-09-19T03:59:43.640Z,98966
2017-09-19T04:02:11.711Z,98963
2017-09-19T04:04:39.791Z,98970
2017-09-19T04:07:07.865Z,98965
2017-09-19T04:09:35.943Z,98968
2017-09-19T04:12:04.796Z,98964
2017-09-19T04:14:32.879Z,98968
2017-09-19T04:17:00.959Z,98971
2017-09-19T04:19:29.039Z,98977
2017-09-19T04:21:57.117Z,98972
2017-09-19T04:24:25.975Z,98968
2017-09-19T04:26:54.047Z,98970
2017-09-19T04:29:22.142Z,98974
2017-09-19T04:31:50.224Z,98971
2017-09-19T04:34:18.307Z,98971
2017-09-19T04:36:47.139Z,98966
2017-09-19T04:39:15.232Z,98978
2017-09-19T04:41:43.305Z,98975
2017-09-19T04:44:11.387Z,98985
2017-09-19T04:46:39.462Z,98986
2017-09-19T04:49:07.535Z,98982
2017-09-19T04:51:35.620Z,98994
2017-09-19T04:54:03.696Z,98991
2017-09-19T04:56:31.767Z,98990
2017-09-19T04:58:59.876Z,98995
2017-09-19T05:01:28.749Z,98998
2017-09-19T05:03:57.591Z,98993
2017-09-19T05:06:25.664Z,98998
2017-09-19T05:08:53.752Z,99003
2017-09-19T05:11:21.827Z,99001
2017-09-19T05:13:49.917Z,98995
2017-09-19T05:16:18.772Z,99004
2017-09-19T05:18:46.863Z,98997
2017-09-19T05:21:14.931Z,99002
2017-09-19T05:23:43.022Z,98997
2017-09-19T05:26:11.860Z,99005
2017-09-19T05:28:40.868Z,98999
2017-09-19T05:31:08.972Z,98992
2017-09-19T05:33:37.047Z,98993
2017-09-19T05:36:05.130Z,99001
2017-09-19T05:38:33.972Z,98995
2017-09-19T05:41:02.084Z,98985
2017-09-19T05:43:30.164Z,98997
2017-09-19T05:45:58.239Z,98992
2017-09-19T05:48:27.083Z,98999
2017-09-19T05:50:55.164Z,99002
2017-09-19T05:53:23.240Z,98995
2017-09-19T05:55:51.322Z,98989
2017-09-19T05:58:19.399Z,98993
2017-09-19T06:00:47.490Z,98982
2017-09-19T06:03:16.334Z,98989
2017-09-19T06:05:44.429Z,98997
2017-09-19T06:08:12.495Z,98997
2017-09-19T06:10:41.356Z,99006
2017-09-19T06:13:09.432Z,98996
2017-09-19T06:15:37.532Z,98997
2017-09-19T06:18:05.616Z,99003
2017-09-19T06:20:33.715Z,98998
2017-09-19T06:23:02.563Z,99005
2017-09-19T06:25:31.850Z,99011
2017-09-19T06:27:59.927Z,99017
2017-09-19T06:30:28.012Z,99024
2017-09-19T06:32:56.091Z,99017
2017-09-19T06:35:24.176Z,99007
2017-09-19T06:37:52.256Z,99011
2017-09-19T06:40:20.336Z,99011
2017-09-19T06:42:49.192Z,99013
2017-09-19T06:45:17.283Z,99010
2017-09-19T06:47:45.360Z,99018
2017-09-19T06:50:13.451Z,99004
2017-09-19T06:52:42.291Z,99017
2017-09-19T06:55:10.376Z,99015
2017-09-19T06:57:38.447Z,99017
2017-09-19T07:00:06.539Z,99015
2017-09-19T07:02:34.607Z,99012
2017-09-19T07:05:02.692Z,99024
2017-09-19T07:07:30.767Z,99021
2017-09-19T07:09:59.627Z,99019
2017-09-19T07:12:27.709Z,99025
2017-09-19T07:14:55.792Z,99014
2017-09-19T07:17:23.882Z,99023
2017-09-19T07:19:51.964Z,99022
2017-09-19T07:22:20.809Z,99028
2017-09-19T07:24:48.911Z,99022
2017-09-19T07:27:16.980Z,99023
2017-09-19T07:29:45.064Z,99032
2017-09-19T07:32:13.920Z,99030
2017-09-19T07:34:42.015Z,99031
2017-09-19T07:37:10.089Z,99027
2017-09-19T07:39:38.169Z,99023
2017-09-19T07:42:07.015Z,99026
2017-09-19T07:44:35.199Z,99023
2017-09-19T07:47:03.275Z,99025
2017-09-19T07:49:31.365Z,99030
2017-09-19T07:51:59.435Z,99016
2017-09-19T07:54:27.533Z,99023
2017-09-19T07:56:56.380Z,99021
2017-09-19T07:59:24.459Z,99014
2017-09-19T08:01:52.557Z,99023
2017-09-19T08:04:20.626Z,99020
2017-09-19T08:06:48.708Z,99017
2017-09-19T08:09:17.556Z,99018
2017-09-19T08:11:45.651Z,99021
2017-09-19T08:14:13.733Z,99019
2017-09-19T08:16:41.819Z,99022
2017-09-19T08:19:10.672Z,99016
2017-09-19T08:21:38.773Z,99012
2017-09-19T08:24:06.848Z,99018
2017-09-19T08:26:34.933Z,99020
2017-09-19T08:29:03.774Z,99015
2017-09-19T08:31:31.852Z,99012
2017-09-19T08:33:59.924Z,99011
2017-09-19T08:36:28.013Z,99008
2017-09-19T08:38:56.084Z,98999
2017-09-19T08:41:24.180Z,99008
2017-09-19T08:43:53.036Z,99013
2017-09-19T08:46:21.126Z,99011
2017-09-19T08:48:49.194Z,99012
2017-09-19T08:51:17.294Z,99005
2017-09-19T08:53:46.148Z,99006
2017-09-19T08:56:14.240Z,99007
2017-09-19T08:58:42.311Z,99013
2017-09-19T09:01:10.404Z,99014
2017-09-19T09:03:39.261Z,99018
2017-09-19T09:06:07.348Z,99010
2017-09-19T09:08:35.428Z,99012
2017-09-19T09:11:04.289Z,99018
2017-09-19T09:13:32.381Z,99007
2017-09-19T09:16:00.469Z,99013
2017-09-19T09:18:29.328Z,99015
2017-09-19T09:20:57.417Z,99008
2017-09-19T09:23:25.501Z,99010
2017-09-19T09:25:53.580Z,99023
2017-09-19T09:28:22.422Z,99021
2017-09-19T09:30:50.507Z,99014
2017-09-19T09:33:18.645Z,99017
2017-09-19T09:35:46.745Z,99022
2017-09-19T09:38:14.815Z,99020
2017-09-19T09:40:42.896Z,99017
2017-09-19T09:43:10.988Z,99015
2017-09-19T09:45:39.076Z,99015
2017-09-19T09:48:07.147Z,99018
2017-09-19T09:50:35.222Z,99010
2017-09-19T09:53:04.101Z,99015
2017-09-19T09:55:32.178Z,99014
2017-09-19T09:58:00.251Z,99015
2017-09-19T10:00:28.332Z,99019
2017-09-19T10:02:57.180Z,99014
2017-09-19T10:05:25.271Z,99009
2017-09-19T10:07:53.352Z,99012
2017-09-19T10:10:21.453Z,99008
2017-09-19T10:12:50.294Z,99004
2017-09-19T10:15:18.389Z,98995
2017-09-19T10:17:46.451Z,99002
2017-09-19T10:20:14.530Z,98987
2017-09-19T10:22:42.599Z,98991
2017-09-19T10:25:10.700Z,98982
2017-09-19T10:27:39.539Z,98981
2017-09-19T10:30:07.630Z,98984
2017-09-19T10:32:35.695Z,98982
2017-09-19T10:35:03.764Z,98987
2017-09-19T10:37:31.839Z,98983
2017-09-19T10:39:59.922Z,98989
2017-09-19T10:42:28.008Z,98985
2017-09-19T10:44:56.071Z,98976
2017-09-19T10:47:24.147Z,98982
2017-09-19T10:49:52.216Z,98977
2017-09-19T10:52:20.303Z,98977
2017-09-19T10:54:48.363Z,98976
2017-09-19T10:57:16.449Z,98976
2017-09-19T10:59:44.519Z,98980
2017-09-19T11:02:12.610Z,98977
2017-09-19T11:04:41.450Z,98983
2017-09-19T11:07:09.527Z,98983
2017-09-19T11:09:37.607Z,98986
2017-09-19T11:12:05.673Z,98985
2017-09-19T11:14:33.782Z,98989
2017-09-19T11:17:02.621Z,98983
2017-09-19T11:19:30.709Z,98979
2017-09-19T11:21:58.780Z,98986
2017-09-19T11:24:26.867Z,98980
2017-09-19T11:26:54.943Z,98979
2017-09-19T11:29:23.029Z,98972
2017-09-19T11:31:51.091Z,98977
2017-09-19T11:34:19.528Z,98990
2017-09-19T11:36:47.604Z,98973
2017-09-19T11:39:16.440Z,98980
2017-09-19T11:41:44.519Z,98975
2017-09-19T11:44:12.589Z,98987
2017-09-19T11:46:40.670Z,98979
2017-09-19T11:49:08.738Z,98972
2017-09-19T11:51:36.815Z,98969
2017-09-19T11:54:05.655Z,98966
2017-09-19T11:56:33.753Z,98961
2017-09-19T11:59:01.826Z,98970
2017-09-19T12:01:29.899Z,98972
2017-09-19T12:03:57.975Z,98960
2017-09-19T12:06:26.043Z,98962
2017-09-19T12:08:54.121Z,98963
2017-09-19T12:11:22.188Z,98956
2017-09-19T12:13:50.247Z,98966
2017-09-19T12:16:18.324Z,98957
2017-09-19T12:18:46.387Z,98960
2017-09-19T12:21:14.462Z,98960
2017-09-19T12:23:42.541Z,98958
2017-09-19T12:26:10.627Z,98953
2017-09-19T12:28:38.777Z,98964
2017-09-19T12:31:06.849Z,98956
2017-09-19T12:33:35.700Z,98957
2017-09-19T12:36:04.539Z,98959
2017-09-19T12:38:32.623Z,98955
2017-09-19T12:41:00.692Z,98962
2017-09-19T12:43:28.755Z,98956
2017-09-19T12:45:57.825Z,98960
2017-09-19T12:48:25.897Z,98952
2017-09-19T12:50:53.971Z,98953
2017-09-19T12:53:22.042Z,98950
2017-09-19T12:55:50.127Z,98944
2017-09-19T12:58:18.235Z,98948
2017-09-19T13:00:46.619Z,98946
2017-09-19T13:03:14.908Z,98945
2017-09-19T13:05:44.495Z,98951
2017-09-19T13:08:12.571Z,98945
2017-09-19T13:10:40.651Z,98955
2017-09-19T13:13:08.724Z,98957
2017-09-19T13:15:36.795Z,98949
2017-09-19T13:18:04.868Z,98952
2017-09-19T13:20:32.939Z,98959
2017-09-19T13:23:01.015Z,98953
2017-09-19T13:25:29.083Z,98953
2017-09-19T13:27:57.160Z,98948
2017-09-19T13:30:25.219Z,98956
2017-09-19T13:33:11.140Z,98950
2017-09-19T13:35:39.985Z,98948
2017-09-19T13:38:08.057Z,98940
2017-09-19T13:40:36.128Z,98954
2017-09-19T13:43:04.199Z,98947
2017-09-19T13:45:32.296Z,98950
2017-09-19T13:48:00.379Z,98954
2017-09-19T13:50:29.223Z,98958
2017-09-19T13:52:57.285Z,98961
2017-09-19T13:55:25.364Z,98953
2017-09-19T13:57:53.430Z,98955
2017-09-19T14:00:21.511Z,98957
2017-09-19T14:02:50.444Z,98960
2017-09-19T14:05:18.524Z,98960
2017-09-19T14:07:46.593Z,98959
2017-09-19T14:10:14.663Z,98958
2017-09-19T14:12:42.735Z,98960
2017-09-19T14:15:10.807Z,98963
2017-09-19T14:17:38.872Z,98957
2017-09-19T14:20:07.036Z,98968
2017-09-19T14:22:35.103Z,98956
2017-09-19T14:25:03.180Z,98965
2017-09-19T14:27:31.262Z,98969
2017-09-19T14:29:59.331Z,98964
2017-09-19T14:32:27.436Z,98959
2017-09-19T14:34:56.279Z,98964
2017-09-19T14:37:24.358Z,98950
2017-09-19T14:39:52.431Z,98957
2017-09-19T14:42:20.935Z,98945
2017-09-19T14:44:49.104Z,98954
2017-09-19T14:47:17.290Z,98947
2017-09-19T14:49:45.360Z,98949
2017-09-19T14:52:13.432Z,98949
2017-09-19T14:54:41.504Z,98950
2017-09-19T14:57:09.589Z,98946
2017-09-19T14:59:38.431Z,98943
2017-09-19T15:02:06.512Z,98937
2017-09-19T15:04:34.593Z,98928
2017-09-19T15:07:02.671Z,98940
2017-09-19T15:09:30.766Z,98935
2017-09-19T15:11:58.880Z,98928
2017-09-19T15:14:26.952Z,98934
2017-09-19T15:16:55.043Z,98933
2017-09-19T15:19:23.119Z,98927
2017-09-19T15:21:51.188Z,98926
2017-09-19T15:24:19.263Z,98932
2017-09-19T15:26:47.336Z,98928
2017-09-19T15:29:15.415Z,98936
2017-09-19T15:31:43.483Z,98946
2017-09-19T15:34:11.567Z,98936
2017-09-19T15:36:40.445Z,98938
2017-09-19T15:39:08.584Z,98943
2017-09-19T15:41:36.656Z,98933
2017-09-19T15:44:04.747Z,98929
2017-09-19T15:46:32.817Z,98946
2017-09-19T15:49:00.945Z,98938
2017-09-19T15:51:29.803Z,98952
2017-09-19T15:53:58.704Z,98954
2017-09-19T15:56:26.785Z,98949
2017-09-19T15:58:54.843Z,98950
2017-09-19T16:01:22.926Z,98952
2017-09-19T16:03:50.998Z,98953
2017-09-19T16:06:19.136Z,98948
2017-09-19T16:08:47.212Z,98954
2017-09-19T16:11:15.288Z,98948
2017-09-19T16:13:43.395Z,98955
2017-09-19T16:16:11.488Z,98958
2017-09-19T16:18:40.334Z,98958
2017-09-19T16:21:09.164Z,98956
2017-09-19T16:23:38.020Z,98956
2017-09-19T16:26:06.119Z,98961
2017-09-19T16:28:34.249Z,98968
2017-09-19T16:31:02.329Z,98967
2017-09-19T16:33:31.172Z,98973
2017-09-19T16:36:00.020Z,98968
2017-09-19T16:38:28.152Z,98976
2017-09-19T16:40:56.974Z,98986
2017-09-19T16:43:25.056Z,98987
2017-09-19T16:45:53.133Z,98992
2017-09-19T16:48:21.228Z,98997
2017-09-19T16:50:49.300Z,98990
2017-09-19T16:53:17.381Z,99000
2017-09-19T16:55:45.444Z,99009
2017-09-19T16:58:13.527Z,99013
2017-09-19T17:00:41.695Z,99014
2017-09-19T17:03:09.772Z,99018
2017-09-19T17:05:37.873Z,99022
2017-09-19T17:08:05.924Z,99030
2017-09-19T17:10:34.768Z,99023
2017-09-19T17:13:02.850Z,99024
2017-09-19T17:15:30.920Z,99028
2017-09-19T17:17:58.996Z,99034
2017-09-19T17:20:27.059Z,99034
2017-09-19T17:22:55.144Z,99025
2017-09-19T17:25:23.203Z,99037
2017-09-19T17:27:51.280Z,99040
2017-09-19T17:30:19.357Z,99047
2017-09-19T17:32:47.437Z,99052
2017-09-19T17:35:15.497Z,99056
2017-09-19T17:37:43.604Z,99059
2017-09-19T17:40:11.641Z,99057
2017-09-19T17:42:39.716Z,99055
2017-09-19T17:45:07.801Z,99065
2017-09-19T17:47:35.872Z,99068
2017-09-19T17:50:03.936Z,99068
2017-09-19T17:52:32.009Z,99070
2017-09-19T17:55:00.080Z,99073
2017-09-19T17:57:28.206Z,99078
2017-09-19T17:59:57.038Z,99079
2017-09-19T18:02:25.124Z,99095
2017-09-19T18:04:53.188Z,99092
2017-09-19T18:07:21.269Z,99097
2017-09-19T18:09:49.336Z,99098
2017-09-19T18:12:17.420Z,99098
2017-09-19T18:14:45.506Z,99105
2017-09-19T18:17:13.595Z,99107
2017-09-19T18:19:42.444Z,99115
2017-09-19T18:22:10.517Z,99118
2017-09-19T18:24:38.611Z,99122
2017-09-19T18:27:06.690Z,99127
2017-09-19T18:29:34.768Z,99127
2017-09-19T18:32:02.834Z,99127
2017-09-19T18:34:30.920Z,99135
2017-09-19T18:36:59.763Z,99126
2017-09-19T18:39:27.852Z,99129
2017-09-19T18:41:55.928Z,99141
2017-09-19T18:44:24.013Z,99138
2017-09-19T18:46:52.085Z,99132
2017-09-19T18:49:20.171Z,99134
2017-09-19T18:51:49.015Z,99144
2017-09-19T18:54:17.109Z,99154
2017-09-19T18:56:45.192Z,99147
2017-09-19T18:59:13.274Z,99148
2017-09-19T19:01:42.115Z,99159
2017-09-19T19:04:10.202Z,99155
2017-09-19T19:06:38.295Z,99157
2017-09-19T19:09:06.415Z,99161
2017-09-19T19:11:34.503Z,99165
2017-09-19T19:14:02.593Z,99170
2017-09-19T19:16:30.672Z,99176
2017-09-19T19:18:58.755Z,99180
2017-09-19T19:21:26.838Z,99177
2017-09-19T19:23:54.915Z,99183
2017-09-19T19:26:23.759Z,99184
2017-09-19T19:28:51.845Z,99177
2017-09-19T19:31:19.916Z,99182
2017-09-19T19:33:48.037Z,99188
2017-09-19T19:36:16.881Z,99190
2017-09-19T19:38:44.972Z,99192
2017-09-19T19:41:13.057Z,99202
2017-09-19T19:43:41.141Z,99192
2017-09-19T19:46:09.991Z,99194
2017-09-19T19:48:38.087Z,99191
2017-09-19T19:51:06.239Z,99189
2017-09-19T19:53:34.340Z,99194
2017-09-19T19:56:02.434Z,99195
2017-09-19T19:58:31.281Z,99198
2017-09-19T20:00:59.368Z,99195
2017-09-19T20:03:27.509Z,99200
2017-09-19T20:05:55.571Z,99205
2017-09-19T20:08:23.662Z,99214
2017-09-19T20:10:51.740Z,99215
2017-09-19T20:13:19.856Z,99216
2017-09-19T20:15:48.722Z,99219
2017-09-19T20:18:16.799Z,99224
2017-09-19T20:20:44.876Z,99219
2017-09-19T20:23:12.960Z,99219
2017-09-19T20:25:41.072Z,99220
2017-09-19T20:28:09.155Z,99221
2017-09-19T20:30:37.262Z,99225
2017-09-19T20:33:05.348Z,99231
2017-09-19T20:35:34.196Z,99233
2017-09-19T20:38:02.297Z,99232
2017-09-19T20:40:30.376Z,99230
2017-09-19T20:42:58.447Z,99227
2017-09-19T20:45:26.548Z,99232
2017-09-19T20:47:54.672Z,99228
2017-09-19T20:50:22.760Z,99229
2017-09-19T20:52:50.867Z,99239
2017-09-19T20:55:18.956Z,99232
2017-09-19T20:57:47.048Z,99236
2017-09-19T21:00:15.141Z,99242
2017-09-19T21:02:42.637Z,99239
2017-09-19T21:05:17.201Z,99245
2017-09-19T21:07:50.814Z,99240
2017-09-19T21:10:24.467Z,99246
2017-09-19T21:12:59.035Z,99247
2017-09-19T21:15:32.609Z,99248
2017-09-19T21:18:06.135Z,99236
2017-09-19T21:20:33.632Z,99238
2017-09-19T21:23:01.720Z,99230
2017-09-19T21:25:30.804Z,99237
2017-09-19T21:27:58.983Z,99233
2017-09-19T21:30:27.117Z,99230
2017-09-19T21:32:55.196Z,99238
2017-09-19T21:35:23.288Z,99249
2017-09-19T21:37:51.368Z,99236
2017-09-19T21:40:19.457Z,99240
2017-09-19T21:42:48.304Z,99245
2017-09-19T21:45:16.409Z,99240
2017-09-19T21:47:44.492Z,99251
2017-09-19T21:50:13.341Z,99248
2017-09-19T21:52:41.412Z,99238
2017-09-19T21:55:09.518Z,99241
2017-09-19T21:57:37.592Z,99239
2017-09-19T22:00:06.455Z,99239
2017-09-19T22:02:34.542Z,99245
2017-09-19T22:05:02.623Z,99239
2017-09-19T22:07:30.700Z,99240
2017-09-19T22:09:58.785Z,99243
2017-09-19T22:12:27.626Z,99240
2017-09-19T22:14:57.052Z,99241
2017-09-19T22:17:25.235Z,99238
2017-09-19T22:19:53.312Z,99240
2017-09-19T22:22:21.392Z,99241
2017-09-19T22:24:50.250Z,99240
2017-09-19T22:27:18.329Z,99249
2017-09-19T22:29:46.415Z,99246
2017-09-19T22:32:14.496Z,99236
2017-09-19T22:34:43.372Z,99228
2017-09-19T22:37:11.457Z,99237
2017-09-19T22:39:39.541Z,99236
2017-09-19T22:42:08.392Z,99225
2017-09-19T22:44:36.883Z,99232
2017-09-19T22:47:04.952Z,99232
2017-09-19T22:49:33.037Z,99229
2017-09-19T22:52:01.116Z,99225
2017-09-19T22:54:29.207Z,99229
2017-09-19T22:56:58.044Z,99242
2017-09-19T22:59:26.136Z,99241
2017-09-19T23:01:54.208Z,99224
2017-09-19T23:04:22.300Z,99241
2017-09-19T23:06:50.380Z,99242
2017-09-19T23:09:19.237Z,99241
2017-09-19T23:11:47.360Z,99246
2017-09-19T23:14:15.453Z,99240
2017-09-19T23:16:43.532Z,99246
2017-09-19T23:19:11.612Z,99233
2017-09-19T23:21:40.456Z,99246
2017-09-19T23:24:09.324Z,99246
2017-09-19T23:26:37.409Z,99246
2017-09-19T23:29:05.494Z,99245
2017-09-19T23:31:34.349Z,99257
2017-09-19T23:34:02.436Z,99259
2017-09-19T23:36:30.516Z,99263
2017-09-19T23:38:58.605Z,99260
2017-09-19T23:41:27.461Z,99254
2017-09-19T23:43:55.557Z,99259
2017-09-19T23:46:23.636Z,99265
2017-09-19T23:48:52.481Z,99262
2017-09-19T23:51:21.323Z,99260
2017-09-19T23:53:50.160Z,99261
2017-09-19T23:56:18.243Z,99266
2017-09-19T23:58:46.320Z,99260
